Terminal Aerodrome Forecast
Issued by NWS Shreveport, LA

Home | Current Version | Previous Version | Text Only | Print | Product List | Glossary On
Versions: 1 2 3 4 5 6 7 8 9 10 11 12 13 14 15 16 17
000
FTUS44 KSHV 281126
TAFMLU
TAF
KMLU 281126Z 2812/2912 VRB03KT P6SM SKC
      TEMPO 2812/2814 3SM BR
     FM281800 12006KT P6SM BKN120
     FM290100 09008KT P6SM SCT250
     FM290600 08005KT P6SM BKN015
      TEMPO 2908/2912 2SM BR OVC005=

USA.gov is the U.S. government's official web portal to all federal, state and local government web resources and services.